Time;durP1;ratioP1;P1;durP2;ratioP2;P2;SDS_P1;SDS_P2;PMS_P1;PMS_P2;Temp;Humidity;BMP_temperature;BMP_pressure;BME280_temperature;BME280_humidity;BME280_pressure;Samples;Min_cycle;Max_cycle;Signal;HPM_P1;HPM_P2
2023/08/28 00:01:44;;;;;;;;;;;16.40;99.90;;;;;;5098613;28;19904;-72
2023/08/28 00:04:10;;;;;;;;;;;16.40;99.90;;;;;;5098639;28;19904;-71
2023/08/28 00:06:35;;;;;;;;;;;16.40;99.90;;;;;;5098692;28;19976;-71
2023/08/28 00:09:01;;;;;;;;;;;16.40;99.90;;;;;;5098542;28;19904;-71
2023/08/28 00:11:26;;;;;;;;;;;16.40;99.90;;;;;;5098386;28;19908;-73
2023/08/28 00:13:52;;;;;;;;;;;16.40;99.90;;;;;;5097851;28;19908;-72
2023/08/28 00:16:17;;;;;;;;;;;16.30;99.90;;;;;;5098620;28;19908;-73
2023/08/28 00:18:44;;;;;;;;;;;16.30;99.90;;;;;;5098279;28;19911;-73
2023/08/28 00:21:09;;;;;;;;;;;16.30;99.90;;;;;;5096723;28;20031;-72
2023/08/28 00:23:35;;;;;;;;;;;16.40;99.90;;;;;;5096255;28;19947;-73
2023/08/28 00:26:00;;;;;;;;;;;16.30;99.90;;;;;;5098074;28;19916;-72
2023/08/28 00:28:26;;;;;;;;;;;16.30;99.90;;;;;;5098002;28;20002;-72
2023/08/28 00:30:51;;;;;;;;;;;16.30;99.90;;;;;;5098261;28;19911;-73
2023/08/28 00:33:17;;;;;;;;;;;16.30;99.90;;;;;;5096772;28;19904;-73
2023/08/28 00:35:43;;;;;;;;;;;16.30;99.90;;;;;;5096907;28;20680;-72
2023/08/28 00:38:09;;;;;;;;;;;16.30;99.90;;;;;;5097931;28;20364;-71
2023/08/28 00:40:43;;;;;;;;;;;16.30;99.90;;;;;;5097950;28;19965;-72
2023/08/28 00:43:09;;;;;;;;;;;16.30;99.90;;;;;;5097439;28;19908;-72
2023/08/28 00:45:38;;;;;;;;;;;16.40;99.90;;;;;;5098073;28;19915;-71
2023/08/28 00:48:03;;;;;;;;;;;16.40;99.90;;;;;;5097699;28;19911;-73
2023/08/28 00:50:29;;;;;;;;;;;16.30;99.90;;;;;;5098266;28;19904;-69
2023/08/28 00:52:54;;;;;;;;;;;16.30;99.90;;;;;;5097877;28;20003;-73
2023/08/28 00:55:20;;;;;;;;;;;16.30;99.90;;;;;;5097724;28;19915;-70
2023/08/28 00:57:45;;;;;;;;;;;16.20;99.90;;;;;;5097431;28;19904;-71
2023/08/28 01:00:12;;;;;;;;;;;16.20;99.90;;;;;;5097617;28;19907;-72
2023/08/28 01:02:40;;;;;;;;;;;16.10;99.90;;;;;;5097352;28;19982;-74
2023/08/28 01:05:07;;;;;;;;;;;16.10;99.90;;;;;;5097668;28;19908;-72
2023/08/28 01:07:51;;;;;;;;;;;16.00;99.90;;;;;;5097451;28;19908;-72
2023/08/28 01:10:21;;;;;;;;;;;16.00;99.90;;;;;;5097376;28;19908;-72
2023/08/28 01:12:51;;;;;;;;;;;16.00;99.90;;;;;;5095963;28;19911;-72
2023/08/28 01:15:21;;;;;;;;;;;15.90;99.90;;;;;;5096117;28;19911;-72
2023/08/28 01:17:50;;;;;;;;;;;15.90;99.90;;;;;;5097311;28;19947;-73
2023/08/28 01:20:16;;;;;;;;;;;15.90;99.90;;;;;;5097244;28;20403;-71
2023/08/28 01:22:59;;;;;;;;;;;15.90;99.90;;;;;;5097347;28;19977;-73
2023/08/28 01:25:25;;;;;;;;;;;15.90;99.90;;;;;;5096683;28;19927;-70
2023/08/28 01:27:51;;;;;;;;;;;15.80;99.90;;;;;;5095513;28;19908;-73
2023/08/28 01:30:17;;;;;;;;;;;15.80;99.90;;;;;;5095586;28;20372;-71
2023/08/28 01:32:43;;;;;;;;;;;15.80;99.90;;;;;;5095398;28;19930;-72
2023/08/28 01:35:12;;;;;;;;;;;15.80;99.90;;;;;;5095848;28;19904;-71
2023/08/28 01:37:56;;;;;;;;;;;15.80;99.90;;;;;;5083943;28;19908;-72
2023/08/28 01:40:25;;;;;;;;;;;15.80;99.90;;;;;;5095036;28;19944;-73
2023/08/28 01:42:51;;;;;;;;;;;15.80;99.90;;;;;;5096583;28;19908;-73
2023/08/28 01:45:17;;;;;;;;;;;15.90;99.90;;;;;;5096650;28;19911;-71
2023/08/28 01:47:43;;;;;;;;;;;15.90;99.90;;;;;;5096679;28;20391;-72
2023/08/28 01:50:08;;;;;;;;;;;15.90;99.90;;;;;;5096876;28;19904;-71
2023/08/28 01:52:34;;;;;;;;;;;15.90;99.90;;;;;;5083926;28;19907;-73
2023/08/28 01:55:00;;;;;;;;;;;16.00;99.90;;;;;;5095498;28;19904;-70
2023/08/28 01:57:25;;;;;;;;;;;16.00;99.90;;;;;;5096524;28;19933;-73
2023/08/28 01:59:51;;;;;;;;;;;16.00;99.90;;;;;;5095257;28;19914;-76
2023/08/28 02:02:16;;;;;;;;;;;16.00;99.90;;;;;;5096578;28;20353;-72
2023/08/28 02:04:42;;;;;;;;;;;16.00;99.90;;;;;;5096330;28;19958;-72
2023/08/28 02:07:07;;;;;;;;;;;16.00;99.90;;;;;;5094559;28;19911;-72
2023/08/28 02:09:33;;;;;;;;;;;16.00;99.90;;;;;;5096341;28;19908;-73
2023/08/28 02:11:58;;;;;;;;;;;16.00;99.90;;;;;;5093992;28;19961;-72
2023/08/28 02:14:24;;;;;;;;;;;16.00;99.90;;;;;;5089076;28;19904;-71
2023/08/28 02:16:49;;;;;;;;;;;15.90;99.90;;;;;;5095585;28;19904;-74
2023/08/28 02:19:15;;;;;;;;;;;15.90;99.90;;;;;;5096110;28;19904;-71
2023/08/28 02:21:40;;;;;;;;;;;15.90;99.90;;;;;;5088952;28;19908;-73
2023/08/28 02:24:06;;;;;;;;;;;15.90;99.90;;;;;;5096256;28;19923;-73
2023/08/28 02:26:32;;;;;;;;;;;16.00;99.90;;;;;;5095964;28;19924;-73
2023/08/28 02:28:57;;;;;;;;;;;16.00;99.90;;;;;;5095969;28;19912;-73
2023/08/28 02:31:23;;;;;;;;;;;16.00;99.90;;;;;;5095811;28;19942;-72
2023/08/28 02:33:48;;;;;;;;;;;16.00;99.90;;;;;;5096057;28;19996;-71
2023/08/28 02:36:14;;;;;;;;;;;16.00;99.90;;;;;;5095973;28;19947;-74
2023/08/28 02:38:39;;;;;;;;;;;16.10;99.90;;;;;;5096034;28;19904;-72
2023/08/28 02:41:07;;;;;;;;;;;16.10;99.90;;;;;;5096044;28;19904;-72
2023/08/28 02:43:33;;;;;;;;;;;16.10;99.90;;;;;;5095402;28;19912;-73
2023/08/28 02:45:58;;;;;;;;;;;16.10;99.90;;;;;;5095539;28;19964;-74
2023/08/28 02:48:24;;;;;;;;;;;16.10;99.90;;;;;;5095971;28;19916;-73
2023/08/28 02:50:50;;;;;;;;;;;16.10;99.90;;;;;;5094493;28;20478;-74
2023/08/28 02:53:15;;;;;;;;;;;16.00;99.90;;;;;;5095817;28;19912;-73
2023/08/28 02:55:41;;;;;;;;;;;16.00;99.90;;;;;;5095761;28;19951;-73
2023/08/28 02:58:07;;;;;;;;;;;16.00;99.90;;;;;;5095437;28;20375;-73
2023/08/28 03:00:34;;;;;;;;;;;16.10;99.90;;;;;;5095554;28;19908;-73
2023/08/28 03:03:00;;;;;;;;;;;16.10;99.90;;;;;;5094431;28;19955;-73
2023/08/28 03:05:26;;;;;;;;;;;16.10;99.90;;;;;;5095341;28;19911;-72
2023/08/28 03:07:52;;;;;;;;;;;16.20;99.90;;;;;;5094169;28;19908;-73
2023/08/28 03:10:17;;;;;;;;;;;16.20;99.90;;;;;;5095179;28;19912;-73
2023/08/28 03:12:43;;;;;;;;;;;16.10;99.90;;;;;;5095068;28;19912;-72
2023/08/28 03:15:08;;;;;;;;;;;16.10;99.90;;;;;;5093067;28;19911;-73
2023/08/28 03:17:34;;;;;;;;;;;16.10;99.90;;;;;;5095471;28;20002;-73
2023/08/28 03:19:59;;;;;;;;;;;16.10;99.90;;;;;;5095550;28;20007;-72
2023/08/28 03:22:25;;;;;;;;;;;16.10;99.90;;;;;;5091935;28;19904;-73
2023/08/28 03:24:52;;;;;;;;;;;16.10;99.90;;;;;;5095233;28;19954;-74
2023/08/28 03:27:18;;;;;;;;;;;16.10;99.90;;;;;;5093588;28;19947;-73
2023/08/28 03:29:44;;;;;;;;;;;16.10;99.90;;;;;;5094216;28;19940;-71
2023/08/28 03:32:09;;;;;;;;;;;16.10;99.90;;;;;;5095101;28;19959;-71
2023/08/28 03:34:35;;;;;;;;;;;16.10;99.90;;;;;;5095590;28;19951;-72
2023/08/28 03:37:00;;;;;;;;;;;16.10;99.90;;;;;;5095372;28;19935;-72
2023/08/28 03:39:26;;;;;;;;;;;16.10;99.90;;;;;;5094029;28;20003;-72
2023/08/28 03:41:51;;;;;;;;;;;15.90;99.90;;;;;;5095037;28;19946;-74
2023/08/28 03:44:17;;;;;;;;;;;15.70;99.90;;;;;;5095449;28;19999;-72
2023/08/28 03:46:42;;;;;;;;;;;15.60;99.90;;;;;;5095530;28;20003;-73
2023/08/28 03:49:08;;;;;;;;;;;15.60;99.90;;;;;;5095199;28;19907;-72
2023/08/28 03:51:33;;;;;;;;;;;15.50;99.90;;;;;;5093738;28;20387;-72
2023/08/28 03:54:00;;;;;;;;;;;15.50;99.90;;;;;;5095713;28;19934;-73
2023/08/28 03:56:26;;;;;;;;;;;15.50;99.90;;;;;;5081512;28;19914;-73
2023/08/28 03:58:51;;;;;;;;;;;15.50;99.90;;;;;;5096993;28;19987;-71
2023/08/28 04:01:17;;;;;;;;;;;15.50;99.90;;;;;;5098805;28;20006;-73
2023/08/28 04:03:43;;;;;;;;;;;15.60;99.90;;;;;;5098814;28;19958;-74
2023/08/28 04:06:09;;;;;;;;;;;15.60;99.90;;;;;;5098630;28;19912;-73
2023/08/28 04:08:34;;;;;;;;;;;15.60;99.90;;;;;;5098854;28;19908;-72
2023/08/28 04:11:00;;;;;;;;;;;15.60;99.90;;;;;;5096593;28;19919;-72
2023/08/28 04:13:25;;;;;;;;;;;15.60;99.90;;;;;;5098653;28;20300;-72
2023/08/28 04:15:51;;;;;;;;;;;15.60;99.90;;;;;;5094841;28;19966;-73
2023/08/28 04:18:17;;;;;;;;;;;15.60;99.90;;;;;;5097544;28;19981;-71
2023/08/28 04:20:42;;;;;;;;;;;15.70;99.90;;;;;;5094613;28;19904;-73
2023/08/28 04:23:08;;;;;;;;;;;15.70;99.90;;;;;;5098645;28;19904;-73
2023/08/28 04:25:33;;;;;;;;;;;15.80;99.90;;;;;;5097793;28;19923;-72
2023/08/28 04:27:59;;;;;;;;;;;15.80;99.90;;;;;;5098316;28;19908;-73
2023/08/28 04:30:25;;;;;;;;;;;15.80;99.90;;;;;;5098245;28;19943;-70
2023/08/28 04:32:50;;;;;;;;;;;15.70;99.90;;;;;;5098397;28;19944;-72
2023/08/28 04:35:16;;;;;;;;;;;15.60;99.90;;;;;;5096491;28;19959;-73
2023/08/28 04:37:41;;;;;;;;;;;15.50;99.90;;;;;;5097917;28;20431;-72
2023/08/28 04:40:07;;;;;;;;;;;15.50;99.90;;;;;;5096333;28;19908;-71
2023/08/28 04:42:32;;;;;;;;;;;15.40;99.90;;;;;;5098376;28;19904;-72
2023/08/28 04:44:58;;;;;;;;;;;15.40;99.90;;;;;;5097771;28;19912;-74
2023/08/28 04:47:24;;;;;;;;;;;15.30;99.90;;;;;;5096616;28;20054;-75
2023/08/28 04:49:49;;;;;;;;;;;15.30;99.90;;;;;;5097951;28;19904;-71
2023/08/28 04:52:15;;;;;;;;;;;15.30;99.90;;;;;;5097901;28;19915;-71
2023/08/28 04:54:40;;;;;;;;;;;15.30;99.90;;;;;;5094420;28;19908;-74
2023/08/28 04:57:06;;;;;;;;;;;15.30;99.90;;;;;;5097743;28;19908;-72
2023/08/28 04:59:31;;;;;;;;;;;15.30;99.90;;;;;;5097592;28;19914;-74
2023/08/28 05:01:57;;;;;;;;;;;15.30;99.90;;;;;;5097738;28;19914;-73
2023/08/28 05:04:22;;;;;;;;;;;15.40;99.90;;;;;;5096778;28;19961;-73
2023/08/28 05:06:48;;;;;;;;;;;15.40;99.90;;;;;;5082545;28;19958;-73
2023/08/28 05:09:14;;;;;;;;;;;15.40;99.90;;;;;;5095822;28;19904;-71
2023/08/28 05:11:40;;;;;;;;;;;15.40;99.90;;;;;;5097224;28;19999;-73
2023/08/28 05:14:05;;;;;;;;;;;15.40;99.90;;;;;;5094529;28;20001;-73
2023/08/28 05:16:31;;;;;;;;;;;15.40;99.90;;;;;;5097811;28;19915;-72
2023/08/28 05:18:57;;;;;;;;;;;15.40;99.90;;;;;;5085423;28;19908;-73
2023/08/28 05:21:22;;;;;;;;;;;15.40;99.90;;;;;;5097305;28;20303;-72
2023/08/28 05:23:48;;;;;;;;;;;15.40;99.90;;;;;;5097162;28;19958;-73
2023/08/28 05:26:13;;;;;;;;;;;15.40;99.90;;;;;;5097053;28;19954;-71
2023/08/28 05:28:40;;;;;;;;;;;15.40;99.90;;;;;;5096835;28;20007;-74
2023/08/28 05:31:05;;;;;;;;;;;15.40;99.90;;;;;;5097059;28;19908;-73
2023/08/28 05:33:31;;;;;;;;;;;15.40;99.90;;;;;;5096685;28;19904;-74
2023/08/28 05:35:56;;;;;;;;;;;15.40;99.90;;;;;;5097240;28;20447;-74
2023/08/28 05:38:22;;;;;;;;;;;15.40;99.90;;;;;;5096519;28;19919;-72
2023/08/28 05:40:47;;;;;;;;;;;15.40;99.90;;;;;;5095469;28;19915;-74
2023/08/28 05:43:13;;;;;;;;;;;15.40;99.90;;;;;;5096760;28;19922;-72
2023/08/28 05:45:39;;;;;;;;;;;15.40;99.90;;;;;;5096767;28;19908;-72
2023/08/28 05:48:04;;;;;;;;;;;15.40;99.90;;;;;;5094477;28;19948;-73
2023/08/28 05:50:30;;;;;;;;;;;15.40;99.90;;;;;;5096784;28;19925;-74
2023/08/28 05:52:56;;;;;;;;;;;15.40;99.90;;;;;;5096266;28;19908;-75
2023/08/28 05:55:22;;;;;;;;;;;15.40;99.90;;;;;;5087711;28;20411;-74
2023/08/28 05:57:47;;;;;;;;;;;15.40;99.90;;;;;;5096611;28;19955;-76
2023/08/28 06:00:14;;;;;;;;;;;15.40;99.90;;;;;;5095231;28;19957;-76
2023/08/28 06:02:39;;;;;;;;;;;15.40;99.90;;;;;;5095311;28;19915;-75
2023/08/28 06:05:05;;;;;;;;;;;15.40;99.90;;;;;;5096457;28;19911;-73
2023/08/28 06:07:31;;;;;;;;;;;15.40;99.90;;;;;;5095171;28;20060;-75
2023/08/28 06:09:56;;;;;;;;;;;15.40;99.90;;;;;;5096339;28;19919;-76
2023/08/28 06:12:22;;;;;;;;;;;15.50;99.90;;;;;;5086669;28;20550;-76
2023/08/28 06:14:48;;;;;;;;;;;15.40;99.90;;;;;;5087056;28;19904;-76
2023/08/28 06:17:13;;;;;;;;;;;15.50;99.90;;;;;;5096663;28;19923;-76
2023/08/28 06:19:39;;;;;;;;;;;15.50;99.90;;;;;;5095933;28;20380;-75
2023/08/28 06:22:05;;;;;;;;;;;15.50;99.90;;;;;;5094760;28;20322;-77
2023/08/28 06:24:31;;;;;;;;;;;15.60;99.90;;;;;;5096104;28;20314;-74
2023/08/28 06:26:57;;;;;;;;;;;15.60;99.90;;;;;;5095823;28;19918;-75
2023/08/28 06:29:22;;;;;;;;;;;15.60;99.90;;;;;;5096235;28;19964;-75
2023/08/28 06:31:48;;;;;;;;;;;15.70;99.90;;;;;;5095838;28;19943;-74
2023/08/28 06:34:14;;;;;;;;;;;15.70;99.90;;;;;;5095935;28;19944;-75
2023/08/28 06:36:40;;;;;;;;;;;15.70;99.90;;;;;;5095304;28;19915;-74
2023/08/28 06:39:07;;;;;;;;;;;15.60;99.90;;;;;;5088934;28;19930;-74
2023/08/28 06:41:32;;;;;;;;;;;15.50;99.90;;;;;;5095785;28;19915;-74
2023/08/28 06:43:58;;;;;;;;;;;15.50;99.90;;;;;;5095833;28;19904;-76
2023/08/28 06:46:23;;;;;;;;;;;15.50;99.90;;;;;;5096044;28;19908;-76
2023/08/28 06:48:51;;;;;;;;;;;15.40;99.90;;;;;;5095956;28;19915;-77
2023/08/28 06:51:17;;;;;;;;;;;15.50;99.90;;;;;;5095702;28;19957;-76
2023/08/28 06:53:43;;;;;;;;;;;15.50;99.90;;;;;;5095532;28;19904;-75
2023/08/28 06:56:09;;;;;;;;;;;15.50;99.90;;;;;;5095495;28;20322;-77
2023/08/28 06:58:34;;;;;;;;;;;15.60;99.90;;;;;;5095421;28;20703;-76
2023/08/28 07:01:00;;;;;;;;;;;15.60;99.90;;;;;;5095479;28;19904;-75
2023/08/28 07:03:25;;;;;;;;;;;15.60;99.90;;;;;;5095811;28;19954;-76
2023/08/28 07:05:51;;;;;;;;;;;15.50;99.90;;;;;;5095275;28;19962;-74
2023/08/28 07:08:17;;;;;;;;;;;15.50;99.90;;;;;;5095631;28;19927;-75
2023/08/28 07:10:42;;;;;;;;;;;15.40;99.90;;;;;;5095137;28;19994;-77
2023/08/28 07:13:08;;;;;;;;;;;15.30;99.90;;;;;;5093327;28;19904;-76
2023/08/28 07:15:34;;;;;;;;;;;15.30;99.90;;;;;;5089058;28;19904;-81
2023/08/28 07:17:59;;;;;;;;;;;15.20;99.90;;;;;;5095921;28;19957;-80
2023/08/28 07:20:25;;;;;;;;;;;15.20;99.90;;;;;;5088019;28;19914;-83
2023/08/28 07:22:53;;;;;;;;;;;15.20;99.90;;;;;;5092823;28;20015;-79
2023/08/28 07:25:21;;;;;;;;;;;15.10;99.90;;;;;;5091590;28;20304;-78
2023/08/28 07:27:47;;;;;;;;;;;15.10;99.90;;;;;;5091348;28;19919;-77
2023/08/28 07:30:12;;;;;;;;;;;15.10;99.90;;;;;;5092040;28;19904;-77
2023/08/28 07:32:39;;;;;;;;;;;15.10;99.90;;;;;;5093890;28;19923;-80
2023/08/28 07:35:05;;;;;;;;;;;15.10;99.90;;;;;;5091554;28;20064;-80
2023/08/28 07:37:33;;;;;;;;;;;15.10;99.90;;;;;;5096800;28;20388;-79
2023/08/28 07:39:58;;;;;;;;;;;15.10;99.90;;;;;;5089830;28;19912;-77
2023/08/28 07:42:24;;;;;;;;;;;15.10;99.90;;;;;;5096123;28;19904;-77
2023/08/28 07:44:50;;;;;;;;;;;15.10;99.90;;;;;;5098008;28;20340;-76
2023/08/28 07:47:16;;;;;;;;;;;15.20;99.90;;;;;;5097977;28;20399;-80
2023/08/28 07:49:42;;;;;;;;;;;15.20;99.90;;;;;;5093795;28;20066;-80
2023/08/28 07:52:08;;;;;;;;;;;15.20;99.90;;;;;;5095878;28;19999;-81
2023/08/28 07:54:33;;;;;;;;;;;15.20;99.90;;;;;;5092271;28;19947;-76
2023/08/28 07:56:59;;;;;;;;;;;15.30;99.90;;;;;;5094951;28;19915;-76
2023/08/28 07:59:24;;;;;;;;;;;15.30;99.90;;;;;;5093211;28;19912;-78
2023/08/28 08:01:50;;;;;;;;;;;15.30;99.90;;;;;;5094415;28;20376;-78
2023/08/28 08:04:15;;;;;;;;;;;15.20;99.90;;;;;;5094927;28;20360;-75
2023/08/28 08:06:41;;;;;;;;;;;15.30;99.90;;;;;;5094924;28;19908;-77
2023/08/28 08:09:06;;;;;;;;;;;15.20;99.90;;;;;;5092005;28;19916;-78
2023/08/28 08:11:32;;;;;;;;;;;15.20;99.90;;;;;;5091946;28;19948;-76
2023/08/28 08:13:58;;;;;;;;;;;15.20;99.90;;;;;;5090773;28;19908;-79
2023/08/28 08:16:24;;;;;;;;;;;15.30;99.90;;;;;;5097802;28;19973;-77
2023/08/28 08:18:50;;;;;;;;;;;15.20;99.90;;;;;;5095085;28;19927;-75
2023/08/28 08:21:15;;;;;;;;;;;15.30;99.90;;;;;;5093369;28;19973;-78
2023/08/28 08:23:41;;;;;;;;;;;15.30;99.90;;;;;;5095970;28;19904;-76
2023/08/28 08:26:07;;;;;;;;;;;15.50;99.90;;;;;;5092974;28;19920;-76
2023/08/28 08:28:32;;;;;;;;;;;15.60;99.90;;;;;;5094973;28;20394;-74
2023/08/28 08:30:58;;;;;;;;;;;15.60;99.90;;;;;;5093495;28;19912;-76
2023/08/28 08:33:23;;;;;;;;;;;15.60;99.90;;;;;;5090281;28;19915;-76
2023/08/28 08:35:49;;;;;;;;;;;15.70;99.90;;;;;;5094735;28;19995;-76
2023/08/28 08:38:14;;;;;;;;;;;15.70;99.90;;;;;;5094103;28;19998;-76
2023/08/28 08:40:40;;;;;;;;;;;15.80;99.90;;;;;;5095403;28;19908;-74
2023/08/28 08:43:06;;;;;;;;;;;15.90;99.90;;;;;;5090747;28;19908;-77
2023/08/28 08:45:34;;;;;;;;;;;15.90;99.90;;;;;;5093840;28;19955;-76
2023/08/28 08:48:01;;;;;;;;;;;16.00;99.90;;;;;;5093706;28;19962;-76
2023/08/28 08:50:28;;;;;;;;;;;16.20;99.90;;;;;;5092385;28;19946;-76
2023/08/28 08:52:55;;;;;;;;;;;16.30;99.90;;;;;;5089997;28;19966;-75
2023/08/28 08:55:27;;;;;;;;;;;16.50;99.90;;;;;;5092427;28;19908;-79
2023/08/28 08:57:53;;;;;;;;;;;16.60;99.90;;;;;;5096762;28;19908;-80
2023/08/28 09:00:19;;;;;;;;;;;16.70;99.90;;;;;;5092020;28;19912;-86
2023/08/28 09:02:45;;;;;;;;;;;16.80;99.90;;;;;;5090299;28;19914;-77
2023/08/28 09:05:12;;;;;;;;;;;17.00;99.90;;;;;;5094286;28;20037;-80
2023/08/28 09:07:38;;;;;;;;;;;17.20;99.90;;;;;;5091446;28;20247;-78
2023/08/28 09:10:04;;;;;;;;;;;17.40;99.90;;;;;;5089610;28;19915;-80
2023/08/28 09:12:30;;;;;;;;;;;17.60;99.90;;;;;;5094724;28;19965;-79
2023/08/28 09:14:55;;;;;;;;;;;17.60;99.90;;;;;;5093740;28;19904;-80
2023/08/28 09:17:21;;;;;;;;;;;17.70;99.90;;;;;;5093786;28;19916;-78
2023/08/28 09:19:47;;;;;;;;;;;17.80;99.90;;;;;;5089907;28;19910;-78
2023/08/28 09:22:13;;;;;;;;;;;17.80;99.90;;;;;;5090521;28;20368;-78
2023/08/28 09:24:38;;;;;;;;;;;18.00;99.90;;;;;;5091331;28;19909;-79
2023/08/28 09:27:04;;;;;;;;;;;18.00;99.90;;;;;;5087847;28;19993;-81
2023/08/28 09:29:30;;;;;;;;;;;18.10;99.90;;;;;;5090988;28;19908;-82
2023/08/28 09:32:05;;;;;;;;;;;18.20;99.90;;;;;;5091190;28;20053;-81
2023/08/28 09:34:38;;;;;;;;;;;18.30;99.90;;;;;;5089445;28;19915;-79
2023/08/28 09:37:04;;;;;;;;;;;18.30;99.90;;;;;;5093189;28;19908;-78
2023/08/28 09:39:29;;;;;;;;;;;18.30;99.90;;;;;;5093035;28;19908;-78
2023/08/28 09:41:55;;;;;;;;;;;18.20;99.90;;;;;;5088449;28;20279;-80
2023/08/28 09:44:21;;;;;;;;;;;18.10;99.90;;;;;;5092160;28;19962;-78
2023/08/28 09:46:47;;;;;;;;;;;18.10;99.90;;;;;;5091409;28;19957;-78
2023/08/28 09:49:13;;;;;;;;;;;18.00;99.90;;;;;;5092896;28;19904;-78
2023/08/28 09:51:43;;;;;;;;;;;17.80;99.90;;;;;;5093145;28;19947;-75
2023/08/28 09:54:09;;;;;;;;;;;17.70;99.90;;;;;;5091106;28;19904;-76
2023/08/28 09:56:35;;;;;;;;;;;17.70;99.90;;;;;;5090100;28;20287;-79
2023/08/28 09:59:03;;;;;;;;;;;17.90;99.90;;;;;;5094148;28;19958;-78
2023/08/28 10:01:32;;;;;;;;;;;18.20;99.90;;;;;;5090100;28;20026;-77
2023/08/28 10:03:59;;;;;;;;;;;18.50;99.90;;;;;;5087984;28;19911;-79
2023/08/28 10:06:25;;;;;;;;;;;18.60;99.90;;;;;;5094529;28;19975;-77
2023/08/28 10:08:53;;;;;;;;;;;18.60;99.90;;;;;;5090422;28;19912;-76
2023/08/28 10:11:18;;;;;;;;;;;18.60;99.90;;;;;;5089711;28;20372;-75
2023/08/28 10:13:44;;;;;;;;;;;18.60;99.90;;;;;;5093100;28;19927;-76
2023/08/28 10:16:11;;;;;;;;;;;18.80;99.90;;;;;;5089624;28;19910;-76
2023/08/28 10:18:44;;;;;;;;;;;19.20;99.90;;;;;;5094006;28;19914;-75
2023/08/28 10:21:10;;;;;;;;;;;19.40;99.90;;;;;;5087986;28;19943;-76
2023/08/28 10:23:35;;;;;;;;;;;19.30;99.90;;;;;;5092339;28;19923;-77
2023/08/28 10:26:01;;;;;;;;;;;19.30;99.90;;;;;;5095172;28;20717;-74
2023/08/28 10:28:28;;;;;;;;;;;19.40;99.90;;;;;;5089581;28;19968;-76
2023/08/28 10:30:53;;;;;;;;;;;19.20;99.90;;;;;;5087006;28;19908;-77
2023/08/28 10:33:20;;;;;;;;;;;19.00;99.90;;;;;;5093006;28;19911;-74
2023/08/28 10:35:49;;;;;;;;;;;19.10;99.90;;;;;;5089811;28;19945;-76
2023/08/28 10:38:15;;;;;;;;;;;19.30;99.90;;;;;;5092877;28;20322;-75
2023/08/28 10:40:41;;;;;;;;;;;19.50;99.90;;;;;;5091790;28;19907;-75
2023/08/28 10:43:06;;;;;;;;;;;19.70;99.90;;;;;;5091214;28;20383;-74
2023/08/28 10:45:36;;;;;;;;;;;19.90;99.90;;;;;;5093480;28;19915;-76
2023/08/28 10:48:01;;;;;;;;;;;20.00;99.90;;;;;;5090324;28;19923;-75
2023/08/28 10:50:33;;;;;;;;;;;20.20;99.90;;;;;;5093022;28;19911;-73
2023/08/28 10:52:59;;;;;;;;;;;20.30;99.90;;;;;;5090596;28;19916;-75
2023/08/28 10:55:26;;;;;;;;;;;20.20;99.90;;;;;;5091429;28;20368;-74
2023/08/28 10:57:52;;;;;;;;;;;20.00;99.90;;;;;;5092038;28;20416;-73
2023/08/28 11:00:22;;;;;;;;;;;19.80;99.90;;;;;;5090270;28;20360;-72
2023/08/28 11:03:06;;;;;;;;;;;19.80;99.90;;;;;;5091730;28;19908;-74
2023/08/28 11:05:32;;;;;;;;;;;20.10;99.90;;;;;;5091387;28;20038;-75
2023/08/28 11:08:03;;;;;;;;;;;20.30;99.90;;;;;;5091856;28;20531;-74
2023/08/28 11:10:29;;;;;;;;;;;20.70;99.90;;;;;;5095843;28;19904;-72
2023/08/28 11:12:56;;;;;;;;;;;20.90;99.90;;;;;;5094466;28;19915;-74
2023/08/28 11:15:35;;;;;;;;;;;20.90;99.90;;;;;;5093370;28;19916;-74
2023/08/28 11:18:12;;;;;;;;;;;20.90;99.90;;;;;;5094343;28;19904;-76
2023/08/28 11:20:38;;;;;;;;;;;20.90;99.90;;;;;;5087669;28;19954;-74
2023/08/28 11:23:03;;;;;;;;;;;20.70;99.90;;;;;;5093821;28;19916;-75
2023/08/28 11:25:36;;;;;;;;;;;20.70;99.90;;;;;;5094187;28;19974;-74
2023/08/28 11:28:01;;;;;;;;;;;20.30;99.90;;;;;;5094732;28;19904;-74
2023/08/28 11:30:27;;;;;;;;;;;19.70;99.90;;;;;;5095281;28;19930;-74
2023/08/28 11:32:53;;;;;;;;;;;19.50;99.90;;;;;;5094427;28;19912;-75
2023/08/28 11:35:20;;;;;;;;;;;19.40;99.90;;;;;;5093110;28;19919;-75
2023/08/28 11:37:47;;;;;;;;;;;19.70;99.90;;;;;;5097300;28;19910;-74
2023/08/28 11:40:16;;;;;;;;;;;19.80;99.90;;;;;;5095608;28;19994;-72
2023/08/28 11:42:42;;;;;;;;;;;19.80;99.90;;;;;;5098302;28;20386;-74
2023/08/28 11:45:08;;;;;;;;;;;19.80;99.90;;;;;;5097951;28;19911;-73
2023/08/28 11:47:34;;;;;;;;;;;19.90;99.90;;;;;;5097879;28;19919;-72
2023/08/28 11:50:00;;;;;;;;;;;19.80;99.90;;;;;;5094078;28;19912;-73
2023/08/28 11:52:25;;;;;;;;;;;19.50;99.90;;;;;;5095912;28;20004;-74
2023/08/28 11:54:51;;;;;;;;;;;18.70;99.90;;;;;;5092225;28;19958;-72
2023/08/28 11:57:18;;;;;;;;;;;17.70;99.90;;;;;;5094409;28;19995;-73
2023/08/28 11:59:44;;;;;;;;;;;17.10;99.90;;;;;;5088278;28;19912;-69
2023/08/28 12:02:15;;;;;;;;;;;16.80;99.90;;;;;;5092351;28;19934;-70
2023/08/28 12:04:41;;;;;;;;;;;16.80;99.90;;;;;;5094261;28;19915;-69
2023/08/28 12:07:20;;;;;;;;;;;16.60;99.90;;;;;;5093665;28;19904;-70
2023/08/28 12:09:46;;;;;;;;;;;16.60;99.90;;;;;;5095200;28;19904;-69
2023/08/28 12:12:13;;;;;;;;;;;16.70;99.90;;;;;;5096686;28;19916;-69
2023/08/28 12:14:40;;;;;;;;;;;17.00;99.90;;;;;;5091311;28;19915;-71
2023/08/28 12:17:06;;;;;;;;;;;17.20;99.90;;;;;;5090390;28;19953;-70
2023/08/28 12:19:31;;;;;;;;;;;17.30;99.90;;;;;;5096848;28;19912;-70
2023/08/28 12:22:05;;;;;;;;;;;17.40;99.90;;;;;;5094823;28;19950;-70
2023/08/28 12:24:30;;;;;;;;;;;17.50;99.90;;;;;;5091066;28;19908;-70
2023/08/28 12:26:56;;;;;;;;;;;17.50;99.90;;;;;;5094655;28;19912;-69
2023/08/28 12:29:25;;;;;;;;;;;17.50;99.90;;;;;;5096191;28;19908;-70
2023/08/28 12:31:51;;;;;;;;;;;17.60;99.90;;;;;;5095383;28;19912;-70
2023/08/28 12:34:16;;;;;;;;;;;17.80;99.90;;;;;;5096975;28;19904;-69
2023/08/28 12:36:45;;;;;;;;;;;17.90;99.90;;;;;;5092605;28;20299;-71
2023/08/28 12:39:19;;;;;;;;;;;18.10;99.90;;;;;;5092155;28;19957;-69
2023/08/28 12:41:49;;;;;;;;;;;18.40;99.90;;;;;;5087802;28;20296;-69
2023/08/28 12:44:14;;;;;;;;;;;18.60;99.90;;;;;;5096479;28;19908;-70
2023/08/28 12:46:40;;;;;;;;;;;18.80;99.90;;;;;;5097784;28;19910;-71
2023/08/28 12:49:06;;;;;;;;;;;18.90;99.90;;;;;;5097976;28;19953;-70
2023/08/28 12:51:31;;;;;;;;;;;19.20;99.90;;;;;;5097777;28;20384;-70
2023/08/28 12:53:57;;;;;;;;;;;19.40;99.90;;;;;;5097818;28;19904;-69
2023/08/28 12:56:22;;;;;;;;;;;19.40;99.90;;;;;;5096192;28;19951;-69
2023/08/28 12:58:48;;;;;;;;;;;19.60;99.90;;;;;;5097762;28;19904;-71
2023/08/28 13:01:14;;;;;;;;;;;19.80;99.90;;;;;;5097350;28;19904;-71
2023/08/28 13:03:40;;;;;;;;;;;19.90;99.90;;;;;;5096305;28;19908;-69
2023/08/28 13:06:05;;;;;;;;;;;20.10;99.90;;;;;;5097739;28;19908;-70
2023/08/28 13:08:31;;;;;;;;;;;20.20;99.90;;;;;;5096358;28;19912;-70
2023/08/28 13:10:56;;;;;;;;;;;20.40;99.90;;;;;;5089477;28;19915;-72
2023/08/28 13:13:26;;;;;;;;;;;20.50;99.90;;;;;;5090656;28;19908;-71
2023/08/28 13:15:52;;;;;;;;;;;20.70;99.90;;;;;;5083552;28;19948;-71
2023/08/28 13:18:17;;;;;;;;;;;20.90;99.90;;;;;;5097532;28;20390;-72
2023/08/28 13:20:43;;;;;;;;;;;21.10;99.90;;;;;;5092800;28;19971;-71
2023/08/28 13:23:08;;;;;;;;;;;21.00;99.90;;;;;;5094166;28;19911;-72
2023/08/28 13:25:34;;;;;;;;;;;20.90;99.90;;;;;;5096856;28;19923;-71
2023/08/28 13:27:59;;;;;;;;;;;20.80;99.90;;;;;;5097170;28;19908;-72
2023/08/28 13:30:25;;;;;;;;;;;20.70;99.90;;;;;;5095534;28;19955;-72
2023/08/28 13:32:50;;;;;;;;;;;20.60;99.90;;;;;;5096963;28;20003;-72
2023/08/28 13:35:17;;;;;;;;;;;20.50;99.90;;;;;;5097131;28;19931;-71
2023/08/28 13:37:43;;;;;;;;;;;20.00;99.90;;;;;;5096969;28;19904;-72
2023/08/28 13:40:09;;;;;;;;;;;19.80;99.90;;;;;;5096865;28;20011;-73
2023/08/28 13:42:34;;;;;;;;;;;19.80;99.90;;;;;;5096836;28;19907;-72
2023/08/28 13:45:00;;;;;;;;;;;19.80;99.90;;;;;;5095614;28;19953;-72
2023/08/28 13:47:27;;;;;;;;;;;19.90;99.90;;;;;;5094803;28;19919;-72
2023/08/28 13:49:52;;;;;;;;;;;19.80;99.90;;;;;;5096659;28;19951;-73
2023/08/28 13:52:18;;;;;;;;;;;19.90;99.90;;;;;;5096489;28;19915;-72
2023/08/28 13:54:44;;;;;;;;;;;20.10;99.90;;;;;;5096778;28;20045;-73
2023/08/28 13:57:10;;;;;;;;;;;20.30;99.90;;;;;;5094780;28;19904;-74
2023/08/28 13:59:35;;;;;;;;;;;20.50;99.90;;;;;;5096444;28;20020;-72
2023/08/28 14:02:01;;;;;;;;;;;20.70;99.90;;;;;;5096607;28;20012;-73
2023/08/28 14:04:27;;;;;;;;;;;21.00;99.90;;;;;;5096537;28;19908;-73
2023/08/28 14:06:52;;;;;;;;;;;21.30;99.90;;;;;;5096741;28;20400;-71
2023/08/28 14:09:18;;;;;;;;;;;21.40;99.90;;;;;;5095756;28;19982;-72
2023/08/28 14:11:44;;;;;;;;;;;21.50;99.90;;;;;;5096426;28;20030;-71